Time,TemperatureF,DewpointF,PressureIn,WindDirection,WindDirectionDegrees,WindSpeedMPH,WindSpeedGustMPH,Humidity,HourlyPrecipIn,Conditions,Clouds,dailyrainin,SoftwareType,DateUTC
2013-03-08 00:03:00,24.0,24.0,29.94,NW,315,13.0,13.0,100,0.00,,,0.00,TxWx,2013-03-08 05:03:00,
2013-03-08 00:11:00,24.0,24.0,29.94,WNW,292,5.0,11.0,100,0.00,,,0.00,TxWx,2013-03-08 05:11:00,
2013-03-08 00:18:00,24.0,24.0,29.94,NW,315,7.0,9.0,100,0.00,,,0.00,TxWx,2013-03-08 05:18:00,
2013-03-08 00:23:00,24.0,24.0,29.94,NNW,337,8.0,12.0,100,0.00,,,0.00,TxWx,2013-03-08 05:23:00,
2013-03-08 00:28:00,24.0,24.0,29.94,NNW,337,8.0,10.0,100,0.00,,,0.00,TxWx,2013-03-08 05:28:00,
2013-03-08 00:33:00,24.0,24.0,29.94,WNW,292,10.0,12.0,100,0.00,,,0.00,TxWx,2013-03-08 05:33:00,
2013-03-08 00:38:00,24.0,24.0,29.94,NNW,337,11.0,15.0,100,0.00,,,0.00,TxWx,2013-03-08 05:38:00,
2013-03-08 00:43:00,24.0,24.0,29.94,NNW,337,17.0,19.0,100,0.00,,,0.00,TxWx,2013-03-08 05:43:00,
2013-03-08 00:48:00,24.0,24.0,29.94,NNW,337,12.0,14.0,100,0.00,,,0.00,TxWx,2013-03-08 05:48:00,
2013-03-08 00:54:00,24.0,24.0,29.95,West,270,10.0,10.0,100,0.00,,,0.00,TxWx,2013-03-08 05:54:00,
2013-03-08 00:59:00,24.0,24.0,29.95,WNW,292,12.0,16.0,100,0.00,,,0.00,TxWx,2013-03-08 05:59:00,
2013-03-08 01:04:00,24.0,24.0,29.95,NW,315,13.0,13.0,100,0.00,,,0.00,TxWx,2013-03-08 06:04:00,
2013-03-08 01:09:00,24.0,24.0,29.95,NW,315,14.0,14.0,100,0.00,,,0.00,TxWx,2013-03-08 06:09:00,
2013-03-08 01:14:00,24.0,24.0,29.95,NW,315,9.0,11.0,100,0.00,,,0.00,TxWx,2013-03-08 06:14:00,
2013-03-08 01:19:00,24.0,24.0,29.95,NW,315,7.0,9.0,100,0.00,,,0.00,TxWx,2013-03-08 06:19:00,
2013-03-08 01:24:00,24.0,24.0,29.94,NW,315,9.0,11.0,100,0.00,,,0.00,TxWx,2013-03-08 06:24:00,
2013-03-08 01:29:00,24.0,24.0,29.95,NW,315,7.0,10.0,100,0.00,,,0.00,TxWx,2013-03-08 06:29:00,
2013-03-08 01:34:00,24.0,24.0,29.94,NNW,337,9.0,12.0,100,0.00,,,0.00,TxWx,2013-03-08 06:34:00,
2013-03-08 01:39:00,24.0,24.0,29.95,NW,315,10.0,12.0,100,0.00,,,0.00,TxWx,2013-03-08 06:39:00,
2013-03-08 01:44:00,24.0,24.0,29.94,NW,315,13.0,17.0,100,0.00,,,0.00,TxWx,2013-03-08 06:44:00,
2013-03-08 01:49:00,24.0,24.0,29.94,NW,315,14.0,14.0,100,0.00,,,0.00,TxWx,2013-03-08 06:49:00,
2013-03-08 01:54:00,24.0,24.0,29.94,NNW,337,10.0,10.0,100,0.00,,,0.00,TxWx,2013-03-08 06:54:00,
2013-03-08 02:00:00,24.0,24.0,29.95,North,0,8.0,9.0,100,0.00,,,0.00,TxWx,2013-03-08 07:00:00,
2013-03-08 02:05:00,24.0,24.0,29.94,WNW,292,14.0,14.0,100,0.00,,,0.00,TxWx,2013-03-08 07:05:00,
2013-03-08 02:10:00,24.0,24.0,29.94,NW,315,8.0,9.0,100,0.00,,,0.00,TxWx,2013-03-08 07:10:00,
2013-03-08 02:15:00,24.0,24.0,29.94,NNW,337,13.0,15.0,100,0.00,,,0.00,TxWx,2013-03-08 07:15:00,
2013-03-08 02:20:00,24.0,24.0,29.94,West,270,8.0,9.0,100,0.00,,,0.00,TxWx,2013-03-08 07:20:00,
2013-03-08 02:25:00,24.0,24.0,29.93,North,0,11.0,15.0,100,0.00,,,0.00,TxWx,2013-03-08 07:25:00,
2013-03-08 02:30:00,24.0,24.0,29.94,NW,315,16.0,18.0,100,0.00,,,0.00,TxWx,2013-03-08 07:30:00,
2013-03-08 02:35:00,24.0,24.0,29.93,West,270,6.0,7.0,100,0.00,,,0.00,TxWx,2013-03-08 07:35:00,
2013-03-08 02:40:00,24.0,24.0,29.93,NNW,337,14.0,16.0,100,0.00,,,0.00,TxWx,2013-03-08 07:40:00,
2013-03-08 02:45:00,24.0,24.0,29.93,NW,315,11.0,11.0,100,0.00,,,0.00,TxWx,2013-03-08 07:45:00,
2013-03-08 02:50:00,24.0,24.0,29.93,NW,315,9.0,12.0,100,0.00,,,0.00,TxWx,2013-03-08 07:50:00,
2013-03-08 02:55:00,24.0,24.0,29.93,WNW,292,7.0,10.0,100,0.00,,,0.00,TxWx,2013-03-08 07:55:00,
2013-03-08 03:00:00,24.0,24.0,29.93,NW,315,13.0,13.0,100,0.00,,,0.00,TxWx,2013-03-08 08:00:00,
2013-03-08 03:05:00,24.0,24.0,29.93,NNW,337,8.0,11.0,100,0.00,,,0.00,TxWx,2013-03-08 08:05:00,
2013-03-08 03:10:00,24.0,24.0,29.93,NW,315,9.0,10.0,100,0.00,,,0.00,TxWx,2013-03-08 08:10:00,
2013-03-08 03:15:00,24.0,24.0,29.93,NW,315,14.0,14.0,100,0.00,,,0.00,TxWx,2013-03-08 08:15:00,
2013-03-08 03:20:00,24.0,24.0,29.93,NW,315,5.0,6.0,100,0.00,,,0.00,TxWx,2013-03-08 08:20:00,
2013-03-08 03:25:00,24.0,24.0,29.93,NW,315,20.0,20.0,100,0.00,,,0.00,TxWx,2013-03-08 08:25:00,
2013-03-08 03:31:00,24.0,24.0,29.93,NNW,337,8.0,13.0,100,0.00,,,0.00,TxWx,2013-03-08 08:31:00,
2013-03-08 03:36:00,24.0,24.0,29.93,WNW,292,8.0,14.0,100,0.00,,,0.00,TxWx,2013-03-08 08:36:00,
2013-03-08 03:41:00,24.0,24.0,29.92,NW,315,7.0,10.0,100,0.00,,,0.00,TxWx,2013-03-08 08:41:00,
2013-03-08 03:46:00,24.0,24.0,29.93,WNW,292,10.0,12.0,100,0.00,,,0.00,TxWx,2013-03-08 08:46:00,
2013-03-08 03:51:00,24.0,24.0,29.93,WNW,292,10.0,13.0,100,0.00,,,0.00,TxWx,2013-03-08 08:51:00,
2013-03-08 03:56:00,24.0,24.0,29.93,NW,315,10.0,13.0,100,0.00,,,0.00,TxWx,2013-03-08 08:56:00,
2013-03-08 04:01:00,24.0,24.0,29.93,West,270,8.0,10.0,100,0.00,,,0.00,TxWx,2013-03-08 09:01:00,
2013-03-08 04:06:00,24.0,24.0,29.93,NW,315,15.0,15.0,100,0.00,,,0.00,TxWx,2013-03-08 09:06:00,
2013-03-08 04:11:00,24.0,24.0,29.93,West,270,13.0,17.0,100,0.00,,,0.00,TxWx,2013-03-08 09:11:00,
2013-03-08 04:16:00,24.0,24.0,29.92,NNW,337,9.0,13.0,100,0.00,,,0.00,TxWx,2013-03-08 09:16:00,
2013-03-08 04:21:00,24.0,24.0,29.92,WNW,292,13.0,22.0,100,0.00,,,0.00,TxWx,2013-03-08 09:21:00,
2013-03-08 04:26:00,24.0,24.0,29.93,WNW,292,10.0,13.0,100,0.00,,,0.00,TxWx,2013-03-08 09:26:00,
2013-03-08 04:31:00,24.0,24.0,29.93,NNW,337,11.0,16.0,100,0.00,,,0.00,TxWx,2013-03-08 09:31:00,
2013-03-08 04:36:00,24.0,24.0,29.93,WNW,292,11.0,19.0,100,0.00,,,0.00,TxWx,2013-03-08 09:36:00,
2013-03-08 04:42:00,24.0,24.0,29.93,NW,315,13.0,16.0,100,0.00,,,0.00,TxWx,2013-03-08 09:42:00,
2013-03-08 04:46:00,24.0,24.0,29.93,West,270,9.0,10.0,100,0.00,,,0.00,TxWx,2013-03-08 09:46:00,
2013-03-08 04:52:00,24.0,24.0,29.93,NW,315,13.0,14.0,100,0.00,,,0.00,TxWx,2013-03-08 09:52:00,
2013-03-08 04:57:00,24.0,24.0,29.93,WNW,292,21.0,21.0,100,0.00,,,0.00,TxWx,2013-03-08 09:57:00,
2013-03-08 05:02:00,24.0,24.0,29.93,NW,315,6.0,11.0,100,0.00,,,0.00,TxWx,2013-03-08 10:02:00,
2013-03-08 05:08:00,24.0,24.0,29.93,NW,315,8.0,9.0,100,0.00,,,0.00,TxWx,2013-03-08 10:08:00,
2013-03-08 05:13:00,24.0,24.0,29.93,WNW,292,7.0,12.0,100,0.00,,,0.00,TxWx,2013-03-08 10:13:00,
2013-03-08 05:18:00,24.0,24.0,29.93,West,270,6.0,12.0,100,0.00,,,0.00,TxWx,2013-03-08 10:18:00,
2013-03-08 05:23:00,24.0,24.0,29.93,NW,315,12.0,12.0,100,0.00,,,0.00,TxWx,2013-03-08 10:23:00,
2013-03-08 05:28:00,24.0,24.0,29.92,NW,315,16.0,19.0,100,0.00,,,0.00,TxWx,2013-03-08 10:28:00,
2013-03-08 05:33:00,24.0,24.0,29.93,WNW,292,11.0,11.0,100,0.00,,,0.00,TxWx,2013-03-08 10:33:00,
2013-03-08 05:38:00,24.0,24.0,29.92,NNW,337,18.0,19.0,100,0.00,,,0.00,TxWx,2013-03-08 10:38:00,
2013-03-08 05:43:00,24.0,24.0,29.93,NW,315,12.0,14.0,100,0.00,,,0.00,TxWx,2013-03-08 10:43:00,
2013-03-08 05:48:00,24.0,24.0,29.93,WNW,292,9.0,12.0,100,0.00,,,0.00,TxWx,2013-03-08 10:48:00,
2013-03-08 05:53:00,24.0,24.0,29.92,NW,315,10.0,13.0,100,0.00,,,0.00,TxWx,2013-03-08 10:53:00,
2013-03-08 05:58:00,24.0,24.0,29.93,NNW,337,14.0,18.0,100,0.00,,,0.00,TxWx,2013-03-08 10:58:00,
2013-03-08 06:03:00,24.0,24.0,29.93,WNW,292,11.0,11.0,100,0.00,,,0.00,TxWx,2013-03-08 11:03:00,
2013-03-08 06:08:00,24.0,24.0,29.93,NNW,337,13.0,14.0,100,0.00,,,0.00,TxWx,2013-03-08 11:08:00,
2013-03-08 06:14:00,24.0,24.0,29.93,NW,315,25.0,27.0,100,0.00,,,0.00,TxWx,2013-03-08 11:14:00,
2013-03-08 06:19:00,24.0,24.0,29.93,NW,315,12.0,18.0,100,0.00,,,0.00,TxWx,2013-03-08 11:19:00,
2013-03-08 06:24:00,24.0,24.0,29.93,NW,315,9.0,13.0,100,0.00,,,0.00,TxWx,2013-03-08 11:24:00,
2013-03-08 06:29:00,24.0,24.0,29.93,NW,315,16.0,22.0,100,0.00,,,0.00,TxWx,2013-03-08 11:29:00,
2013-03-08 06:34:00,24.0,24.0,29.93,NW,315,16.0,16.0,100,0.60,,,0.02,TxWx,2013-03-08 11:34:00,
2013-03-08 06:39:00,24.0,24.0,29.93,NNW,337,16.0,16.0,100,0.60,,,0.02,TxWx,2013-03-08 11:39:00,
2013-03-08 06:44:00,24.0,24.0,29.93,NW,315,14.0,18.0,100,0.00,,,0.02,TxWx,2013-03-08 11:44:00,
2013-03-08 06:49:00,24.0,24.0,29.94,NW,315,12.0,16.0,100,0.00,,,0.02,TxWx,2013-03-08 11:49:00,
2013-03-08 06:54:00,24.0,24.0,29.94,WNW,292,12.0,17.0,100,0.00,,,0.02,TxWx,2013-03-08 11:54:00,
2013-03-08 06:59:00,24.0,24.0,29.94,WNW,292,8.0,12.0,100,0.00,,,0.02,TxWx,2013-03-08 11:59:00,
2013-03-08 07:04:00,24.0,24.0,29.94,NNW,337,12.0,17.0,100,0.00,,,0.02,TxWx,2013-03-08 12:04:00,
2013-03-08 07:09:00,24.0,24.0,29.94,NW,315,9.0,11.0,100,0.00,,,0.02,TxWx,2013-03-08 12:09:00,
2013-03-08 07:14:00,24.0,24.0,29.94,WNW,292,6.0,7.0,100,0.00,,,0.02,TxWx,2013-03-08 12:14:00,
2013-03-08 07:20:00,24.0,24.0,29.94,NW,315,13.0,17.0,100,0.00,,,0.02,TxWx,2013-03-08 12:20:00,
2013-03-08 07:25:00,24.0,24.0,29.95,NW,315,10.0,13.0,100,0.00,,,0.02,TxWx,2013-03-08 12:25:00,
2013-03-08 07:30:00,24.0,24.0,29.95,NNW,337,9.0,16.0,100,0.00,,,0.02,TxWx,2013-03-08 12:30:00,
2013-03-08 07:35:00,24.0,24.0,29.95,NW,315,11.0,16.0,100,0.00,,,0.02,TxWx,2013-03-08 12:35:00,
2013-03-08 07:40:00,24.0,24.0,29.95,West,270,10.0,12.0,100,0.00,,,0.02,TxWx,2013-03-08 12:40:00,
2013-03-08 07:45:00,24.0,24.0,29.95,West,270,12.0,16.0,100,0.00,,,0.02,TxWx,2013-03-08 12:45:00,
2013-03-08 07:50:00,24.0,24.0,29.96,NNW,337,7.0,11.0,100,0.00,,,0.02,TxWx,2013-03-08 12:50:00,
2013-03-08 07:55:00,24.0,24.0,29.95,NNW,337,10.0,12.0,100,0.00,,,0.02,TxWx,2013-03-08 12:55:00,
2013-03-08 08:00:00,24.0,24.0,29.96,NNW,337,8.0,11.0,100,0.00,,,0.02,TxWx,2013-03-08 13:00:00,
2013-03-08 08:05:00,24.0,24.0,29.96,NW,315,11.0,11.0,100,0.00,,,0.02,TxWx,2013-03-08 13:05:00,
2013-03-08 08:10:00,24.0,24.0,29.95,NW,315,10.0,14.0,100,0.00,,,0.02,TxWx,2013-03-08 13:10:00,
2013-03-08 08:15:00,24.0,24.0,29.95,WNW,292,19.0,21.0,100,0.00,,,0.02,TxWx,2013-03-08 13:15:00,
2013-03-08 08:21:00,24.0,24.0,29.95,WSW,247,12.0,20.0,100,0.00,,,0.02,TxWx,2013-03-08 13:21:00,
2013-03-08 08:26:00,24.0,24.0,29.95,NNW,337,17.0,19.0,100,0.00,,,0.02,TxWx,2013-03-08 13:26:00,
2013-03-08 08:31:00,24.0,24.0,29.96,NNW,337,19.0,19.0,100,0.00,,,0.02,TxWx,2013-03-08 13:31:00,
2013-03-08 08:36:00,24.0,24.0,29.95,NW,315,16.0,16.0,100,0.00,,,0.02,TxWx,2013-03-08 13:36:00,
2013-03-08 08:41:00,24.0,24.0,29.96,NNW,337,12.0,12.0,100,0.00,,,0.02,TxWx,2013-03-08 13:41:00,
2013-03-08 08:46:00,24.0,24.0,29.96,NW,315,14.0,22.0,100,0.00,,,0.02,TxWx,2013-03-08 13:46:00,
2013-03-08 08:51:00,24.0,24.0,29.96,NNW,337,15.0,19.0,100,0.00,,,0.02,TxWx,2013-03-08 13:51:00,
2013-03-08 08:56:00,24.0,24.0,29.96,WNW,292,12.0,17.0,100,0.00,,,0.02,TxWx,2013-03-08 13:56:00,
2013-03-08 09:01:00,24.0,24.0,29.96,NNW,337,13.0,26.0,100,0.00,,,0.02,TxWx,2013-03-08 14:01:00,
2013-03-08 09:06:00,24.0,24.0,29.96,WNW,292,9.0,16.0,100,0.00,,,0.02,TxWx,2013-03-08 14:06:00,
2013-03-08 09:11:00,24.0,24.0,29.96,NW,315,10.0,14.0,100,0.00,,,0.02,TxWx,2013-03-08 14:11:00,
2013-03-08 09:16:00,24.0,24.0,29.96,WNW,292,7.0,23.0,100,0.00,,,0.02,TxWx,2013-03-08 14:16:00,
2013-03-08 09:21:00,24.0,24.0,29.96,NW,315,11.0,12.0,100,0.00,,,0.02,TxWx,2013-03-08 14:21:00,
2013-03-08 09:27:00,24.0,24.0,29.96,NW,315,9.0,16.0,100,0.00,,,0.02,TxWx,2013-03-08 14:27:00,
2013-03-08 09:32:00,24.0,24.0,29.96,NW,315,11.0,15.0,100,0.00,,,0.02,TxWx,2013-03-08 14:32:00,
2013-03-08 09:37:00,24.0,24.0,29.96,NW,315,10.0,13.0,100,0.00,,,0.02,TxWx,2013-03-08 14:37:00,
2013-03-08 09:42:00,24.0,24.0,29.96,West,270,11.0,15.0,100,0.00,,,0.02,TxWx,2013-03-08 14:42:00,
2013-03-08 09:47:00,24.0,24.0,29.96,NW,315,11.0,13.0,100,0.00,,,0.02,TxWx,2013-03-08 14:47:00,
2013-03-08 09:52:00,24.0,24.0,29.96,NW,315,9.0,13.0,100,0.00,,,0.04,TxWx,2013-03-08 14:52:00,
2013-03-08 09:57:00,24.0,24.0,29.96,WNW,292,10.0,13.0,100,0.00,,,0.04,TxWx,2013-03-08 14:57:00,
2013-03-08 10:02:00,24.0,24.0,29.97,NW,315,12.0,15.0,100,0.60,,,0.04,TxWx,2013-03-08 15:02:00,
2013-03-08 10:07:00,24.0,24.0,29.97,NW,315,18.0,26.0,100,0.60,,,0.04,TxWx,2013-03-08 15:07:00,
2013-03-08 10:12:00,25.0,25.0,29.97,NW,315,13.0,19.0,100,0.00,,,0.04,TxWx,2013-03-08 15:12:00,
2013-03-08 10:17:00,24.0,24.0,29.97,WNW,292,15.0,19.0,100,0.00,,,0.04,TxWx,2013-03-08 15:17:00,
2013-03-08 10:23:00,25.0,25.0,29.97,NW,315,10.0,21.0,100,0.00,,,0.04,TxWx,2013-03-08 15:23:00,
2013-03-08 10:28:00,25.0,25.0,29.98,NW,315,11.0,13.0,100,0.00,,,0.04,TxWx,2013-03-08 15:28:00,
2013-03-08 10:33:00,25.0,25.0,29.97,NNW,337,12.0,24.0,100,0.00,,,0.04,TxWx,2013-03-08 15:33:00,
2013-03-08 10:38:00,25.0,25.0,29.98,WNW,292,9.0,12.0,100,0.00,,,0.04,TxWx,2013-03-08 15:38:00,
2013-03-08 10:43:00,25.0,25.0,29.98,NNW,337,12.0,20.0,100,0.00,,,0.04,TxWx,2013-03-08 15:43:00,
2013-03-08 10:48:00,25.0,25.0,29.98,NNW,337,13.0,19.0,100,0.00,,,0.04,TxWx,2013-03-08 15:48:00,
2013-03-08 10:53:00,25.0,25.0,29.98,NW,315,12.0,14.0,100,0.00,,,0.04,TxWx,2013-03-08 15:53:00,
2013-03-08 10:58:00,25.0,25.0,29.98,West,270,13.0,15.0,100,0.00,,,0.04,TxWx,2013-03-08 15:58:00,
2013-03-08 11:03:00,25.0,25.0,29.98,North,0,12.0,16.0,100,0.00,,,0.04,TxWx,2013-03-08 16:03:00,
2013-03-08 11:08:00,25.0,25.0,29.99,NW,315,13.0,13.0,100,0.00,,,0.04,TxWx,2013-03-08 16:08:00,
2013-03-08 11:13:00,25.0,25.0,29.99,WNW,292,7.0,8.0,100,0.00,,,0.04,TxWx,2013-03-08 16:13:00,
2013-03-08 11:19:00,25.0,25.0,29.99,NNW,337,11.0,13.0,100,0.00,,,0.04,TxWx,2013-03-08 16:19:00,
2013-03-08 11:24:00,25.0,25.0,29.99,West,270,8.0,10.0,100,0.00,,,0.04,TxWx,2013-03-08 16:24:00,
2013-03-08 11:29:00,25.0,25.0,29.99,WNW,292,6.0,8.0,100,0.00,,,0.04,TxWx,2013-03-08 16:29:00,
2013-03-08 11:34:00,25.0,25.0,30.01,NNW,337,9.0,9.0,100,0.00,,,0.04,TxWx,2013-03-08 16:34:00,
2013-03-08 11:39:00,25.0,25.0,30.00,NW,315,7.0,7.0,100,0.00,,,0.04,TxWx,2013-03-08 16:39:00,
2013-03-08 11:44:00,25.0,25.0,30.01,NNW,337,10.0,15.0,100,0.00,,,0.04,TxWx,2013-03-08 16:44:00,
2013-03-08 11:49:00,25.0,25.0,30.00,NW,315,11.0,14.0,100,0.00,,,0.04,TxWx,2013-03-08 16:49:00,
2013-03-08 11:54:00,25.0,25.0,30.00,NW,315,13.0,16.0,100,0.00,,,0.04,TxWx,2013-03-08 16:54:00,
2013-03-08 11:59:00,26.0,26.0,29.99,WNW,292,10.0,14.0,100,0.00,,,0.04,TxWx,2013-03-08 16:59:00,
2013-03-08 12:04:00,26.0,26.0,29.99,WNW,292,9.0,14.0,100,0.00,,,0.04,TxWx,2013-03-08 17:04:00,
2013-03-08 12:09:00,26.0,26.0,29.98,West,270,11.0,14.0,100,0.00,,,0.04,TxWx,2013-03-08 17:09:00,
2013-03-08 12:15:00,26.0,26.0,29.98,NW,315,11.0,11.0,100,0.00,,,0.04,TxWx,2013-03-08 17:15:00,
2013-03-08 12:20:00,26.0,26.0,29.98,NW,315,13.0,13.0,100,0.00,,,0.04,TxWx,2013-03-08 17:20:00,
2013-03-08 12:25:00,26.0,26.0,29.98,NW,315,10.0,11.0,100,0.00,,,0.04,TxWx,2013-03-08 17:25:00,
2013-03-08 12:30:00,26.0,26.0,29.98,North,0,5.0,5.0,100,0.00,,,0.04,TxWx,2013-03-08 17:30:00,
2013-03-08 12:35:00,26.0,26.0,29.98,West,270,6.0,10.0,100,0.00,,,0.04,TxWx,2013-03-08 17:35:00,
2013-03-08 12:40:00,26.0,26.0,29.98,NW,315,8.0,11.0,100,0.00,,,0.04,TxWx,2013-03-08 17:40:00,
2013-03-08 12:45:00,26.0,26.0,29.98,NW,315,9.0,14.0,100,0.00,,,0.04,TxWx,2013-03-08 17:45:00,
2013-03-08 12:50:00,27.0,27.0,29.98,NNW,337,15.0,15.0,100,0.00,,,0.04,TxWx,2013-03-08 17:50:00,
2013-03-08 12:55:00,27.0,27.0,29.98,NW,315,9.0,13.0,100,0.00,,,0.04,TxWx,2013-03-08 17:55:00,
2013-03-08 13:00:00,27.0,27.0,29.98,NNW,337,8.0,12.0,100,0.00,,,0.04,TxWx,2013-03-08 18:00:00,
2013-03-08 13:05:00,27.0,27.0,29.98,NW,315,12.0,13.0,100,0.00,,,0.04,TxWx,2013-03-08 18:05:00,
2013-03-08 13:11:00,28.0,28.0,29.99,NNW,337,11.0,11.0,100,0.00,,,0.04,TxWx,2013-03-08 18:11:00,
2013-03-08 13:16:00,28.0,28.0,30.00,North,0,8.0,11.0,100,0.00,,,0.04,TxWx,2013-03-08 18:16:00,
2013-03-08 13:21:00,28.0,28.0,29.99,NW,315,10.0,14.0,100,0.00,,,0.04,TxWx,2013-03-08 18:21:00,
2013-03-08 13:26:00,28.0,28.0,29.98,West,270,8.0,8.0,100,0.00,,,0.04,TxWx,2013-03-08 18:26:00,
2013-03-08 13:31:00,28.0,28.0,30.00,NNW,337,16.0,18.0,100,0.00,,,0.04,TxWx,2013-03-08 18:31:00,
2013-03-08 13:36:00,29.0,29.0,29.98,NW,315,8.0,13.0,100,0.00,,,0.04,TxWx,2013-03-08 18:36:00,
2013-03-08 13:41:00,29.0,29.0,30.00,NE,45,3.0,5.0,100,0.00,,,0.04,TxWx,2013-03-08 18:41:00,
2013-03-08 13:46:00,29.0,29.0,29.99,NNW,337,19.0,21.0,100,0.00,,,0.04,TxWx,2013-03-08 18:46:00,
2013-03-08 13:51:00,29.0,29.0,29.99,NNW,337,9.0,13.0,100,0.00,,,0.04,TxWx,2013-03-08 18:51:00,
2013-03-08 13:56:00,29.0,29.0,30.00,NNW,337,8.0,14.0,100,0.00,,,0.04,TxWx,2013-03-08 18:56:00,
2013-03-08 13:59:00,27.0,21.0,30.13,NNW,337,14.0,18.0,80,0.00,,,0.04,TxWx,2013-03-08 18:59:00,
2013-03-08 14:00:00,27.0,21.0,30.12,NW,315,13.0,14.0,80,0.00,,,0.00,TxWx,2013-03-08 19:00:00,
2013-03-08 14:01:00,30.0,30.0,30.01,NNW,337,6.0,7.0,100,0.00,,,0.04,TxWx,2013-03-08 19:01:00,
2013-03-08 14:02:00,28.0,22.0,30.13,WNW,292,8.0,12.0,80,0.00,,,0.00,TxWx,2013-03-08 19:02:00,
2013-03-08 14:03:00,28.0,22.0,30.13,NW,315,14.0,21.0,80,0.00,,,0.00,TxWx,2013-03-08 19:03:00,
2013-03-08 14:07:00,30.0,30.0,30.01,North,0,7.0,11.0,100,0.00,,,0.04,TxWx,2013-03-08 19:07:00,
2013-03-08 14:12:00,30.0,30.0,30.01,NE,45,6.0,10.0,100,0.00,,,0.04,TxWx,2013-03-08 19:12:00,
2013-03-08 14:15:00,28.0,22.0,30.13,NNW,337,12.0,15.0,81,0.00,,,0.00,TxWx,2013-03-08 19:15:00,
2013-03-08 14:16:00,28.0,22.0,30.12,WNW,292,14.0,18.0,81,0.00,,,0.00,TxWx,2013-03-08 19:16:00,
2013-03-08 14:17:00,30.0,30.0,30.00,NW,315,8.0,10.0,100,0.00,,,0.04,TxWx,2013-03-08 19:17:00,
2013-03-08 14:18:00,27.0,21.0,30.13,NW,315,15.0,15.0,81,0.00,,,0.00,TxWx,2013-03-08 19:18:00,
2013-03-08 14:19:00,28.0,22.0,30.13,North,0,13.0,13.0,81,0.00,,,0.00,TxWx,2013-03-08 19:19:00,
2013-03-08 14:22:00,30.0,30.0,30.00,NNW,337,10.0,11.0,100,0.00,,,0.04,TxWx,2013-03-08 19:22:00,
2013-03-08 14:26:00,27.0,21.0,30.13,NNW,337,12.0,13.0,82,0.00,,,0.00,TxWx,2013-03-08 19:26:00,
2013-03-08 14:27:00,30.0,30.0,30.00,NNW,337,11.0,14.0,100,0.00,,,0.04,TxWx,2013-03-08 19:27:00,
2013-03-08 14:28:00,27.0,21.0,30.13,NNW,337,6.0,10.0,82,0.00,,,0.00,TxWx,2013-03-08 19:28:00,
2013-03-08 14:32:00,31.0,31.0,30.00,NW,315,13.0,15.0,100,0.00,,,0.04,TxWx,2013-03-08 19:32:00,
2013-03-08 14:37:00,31.0,31.0,29.99,NW,315,8.0,13.0,100,0.00,,,0.04,TxWx,2013-03-08 19:37:00,
2013-03-08 14:42:00,31.0,31.0,30.00,NE,45,4.0,7.0,100,0.00,,,0.04,TxWx,2013-03-08 19:42:00,
2013-03-08 14:47:00,32.0,32.0,30.00,WNW,292,12.0,12.0,100,0.00,,,0.04,TxWx,2013-03-08 19:47:00,
2013-03-08 14:49:00,26.0,22.0,30.13,NNE,22,5.0,6.0,84,0.00,,,0.00,TxWx,2013-03-08 19:49:00,
2013-03-08 14:50:00,26.0,22.0,30.13,NNW,337,8.0,9.0,84,0.00,,,0.00,TxWx,2013-03-08 19:50:00,
2013-03-08 14:51:00,27.0,22.0,30.13,NW,315,7.0,10.0,84,0.00,,,0.00,TxWx,2013-03-08 19:51:00,
2013-03-08 14:52:00,33.0,33.0,30.00,NW,315,13.0,19.0,100,0.00,,,0.04,TxWx,2013-03-08 19:52:00,
2013-03-08 14:53:00,26.0,21.0,30.13,NNW,337,9.0,9.0,84,0.00,,,0.00,TxWx,2013-03-08 19:53:00,
2013-03-08 14:54:00,26.0,21.0,30.13,NNW,337,11.0,11.0,84,0.00,,,0.00,TxWx,2013-03-08 19:54:00,
2013-03-08 14:57:00,33.0,33.0,30.00,North,0,10.0,16.0,100,0.00,,,0.04,TxWx,2013-03-08 19:57:00,
2013-03-08 15:03:00,34.0,34.0,30.01,NW,315,13.0,13.0,100,0.00,,,0.04,TxWx,2013-03-08 20:03:00,
2013-03-08 15:08:00,34.0,33.0,30.01,NNW,337,13.0,14.0,97,0.00,,,0.04,TxWx,2013-03-08 20:08:00,
2013-03-08 15:13:00,34.0,31.0,30.00,NNE,22,6.0,11.0,92,0.00,,,0.04,TxWx,2013-03-08 20:13:00,
2013-03-08 15:18:00,34.0,30.0,30.00,WNW,292,13.0,18.0,88,0.00,,,0.04,TxWx,2013-03-08 20:18:00,
2013-03-08 15:23:00,34.0,29.0,30.01,NW,315,11.0,15.0,86,0.00,,,0.04,TxWx,2013-03-08 20:23:00,
2013-03-08 15:28:00,34.0,29.0,30.01,NNW,337,8.0,11.0,84,0.00,,,0.04,TxWx,2013-03-08 20:28:00,
2013-03-08 15:33:00,34.0,28.0,30.01,NW,315,19.0,26.0,81,0.00,,,0.04,TxWx,2013-03-08 20:33:00,
2013-03-08 15:38:00,35.0,28.0,30.01,North,0,8.0,10.0,79,0.00,,,0.04,TxWx,2013-03-08 20:38:00,
2013-03-08 15:43:00,35.0,27.0,30.01,WNW,292,10.0,15.0,76,0.00,,,0.04,TxWx,2013-03-08 20:43:00,
2013-03-08 15:48:00,35.0,27.0,30.01,North,0,9.0,13.0,74,0.00,,,0.04,TxWx,2013-03-08 20:48:00,
2013-03-08 15:54:00,35.0,26.0,30.02,NW,315,11.0,13.0,73,0.00,,,0.04,TxWx,2013-03-08 20:54:00,
2013-03-08 15:59:00,35.0,26.0,30.02,WNW,292,13.0,13.0,73,0.00,,,0.04,TxWx,2013-03-08 20:59:00,
2013-03-08 16:04:00,35.0,26.0,30.02,NNW,337,13.0,14.0,73,0.00,,,0.04,TxWx,2013-03-08 21:04:00,
2013-03-08 16:08:00,27.0,21.0,30.12,NNW,337,15.0,16.0,83,0.00,,,0.00,TxWx,2013-03-08 21:08:00,
2013-03-08 16:09:00,35.0,26.0,30.02,NW,315,16.0,18.0,72,0.00,,,0.04,TxWx,2013-03-08 21:09:00,
2013-03-08 16:10:00,27.0,21.0,30.12,NW,315,12.0,14.0,82,0.00,,,0.00,TxWx,2013-03-08 21:10:00,
2013-03-08 16:14:00,35.0,26.0,30.02,NNW,337,12.0,16.0,71,0.00,,,0.04,TxWx,2013-03-08 21:14:00,
2013-03-08 16:19:00,36.0,27.0,30.02,North,0,13.0,19.0,71,0.00,,,0.04,TxWx,2013-03-08 21:19:00,
2013-03-08 16:24:00,36.0,26.0,30.02,NNW,337,16.0,16.0,71,0.00,,,0.04,TxWx,2013-03-08 21:24:00,
2013-03-08 16:29:00,35.0,25.0,30.03,NW,315,12.0,16.0,71,0.00,,,0.04,TxWx,2013-03-08 21:29:00,
2013-03-08 16:34:00,35.0,25.0,30.03,North,0,18.0,18.0,71,0.00,,,0.04,TxWx,2013-03-08 21:34:00,
2013-03-08 16:39:00,35.0,26.0,30.04,NW,315,13.0,18.0,72,0.00,,,0.04,TxWx,2013-03-08 21:39:00,
2013-03-08 16:45:00,35.0,26.0,30.04,NNW,337,19.0,22.0,72,0.00,,,0.04,TxWx,2013-03-08 21:45:00,
2013-03-08 16:50:00,35.0,26.0,30.04,West,270,6.0,18.0,71,0.00,,,0.04,TxWx,2013-03-08 21:50:00,
2013-03-08 16:55:00,35.0,26.0,30.04,NNW,337,6.0,9.0,72,0.00,,,0.04,TxWx,2013-03-08 21:55:00,
2013-03-08 17:00:00,35.0,26.0,30.05,NNW,337,14.0,16.0,71,0.00,,,0.04,TxWx,2013-03-08 22:00:00,
2013-03-08 17:05:00,35.0,26.0,30.05,NNW,337,12.0,16.0,71,0.00,,,0.04,TxWx,2013-03-08 22:05:00,
2013-03-08 17:10:00,35.0,25.0,30.04,NW,315,13.0,17.0,71,0.00,,,0.04,TxWx,2013-03-08 22:10:00,
2013-03-08 17:15:00,35.0,25.0,30.04,NW,315,18.0,21.0,70,0.00,,,0.04,TxWx,2013-03-08 22:15:00,
2013-03-08 17:20:00,35.0,25.0,30.05,NW,315,6.0,13.0,70,0.00,,,0.04,TxWx,2013-03-08 22:20:00,
2013-03-08 17:25:00,35.0,25.0,30.04,NNW,337,11.0,13.0,70,0.00,,,0.04,TxWx,2013-03-08 22:25:00,
2013-03-08 17:30:00,35.0,25.0,30.05,NNW,337,9.0,9.0,70,0.00,,,0.04,TxWx,2013-03-08 22:30:00,
2013-03-08 17:35:00,34.0,24.0,30.05,NNW,337,10.0,12.0,70,0.00,,,0.04,TxWx,2013-03-08 22:35:00,
2013-03-08 17:41:00,34.0,24.0,30.05,North,0,16.0,23.0,70,0.00,,,0.04,TxWx,2013-03-08 22:41:00,
2013-03-08 17:46:00,34.0,24.0,30.06,NNW,337,14.0,18.0,69,0.00,,,0.04,TxWx,2013-03-08 22:46:00,
2013-03-08 17:51:00,34.0,24.0,30.05,NW,315,8.0,11.0,70,0.00,,,0.04,TxWx,2013-03-08 22:51:00,
2013-03-08 17:56:00,34.0,24.0,30.06,NNW,337,10.0,13.0,70,0.00,,,0.04,TxWx,2013-03-08 22:56:00,
2013-03-08 18:01:00,34.0,24.0,30.06,NNW,337,13.0,18.0,71,0.00,,,0.04,TxWx,2013-03-08 23:01:00,
2013-03-08 18:06:00,33.0,23.0,30.07,NW,315,11.0,18.0,71,0.00,,,0.04,TxWx,2013-03-08 23:06:00,
2013-03-08 18:11:00,33.0,23.0,30.07,NW,315,13.0,16.0,71,0.00,,,0.04,TxWx,2013-03-08 23:11:00,
2013-03-08 18:16:00,33.0,24.0,30.07,NW,315,14.0,16.0,71,0.00,,,0.04,TxWx,2013-03-08 23:16:00,
2013-03-08 18:21:00,33.0,23.0,30.08,NW,315,7.0,8.0,71,0.00,,,0.04,TxWx,2013-03-08 23:21:00,
2013-03-08 18:26:00,33.0,23.0,30.08,NW,315,11.0,14.0,71,0.00,,,0.04,TxWx,2013-03-08 23:26:00,
2013-03-08 18:31:00,32.0,22.0,30.08,NNE,22,10.0,10.0,71,0.00,,,0.04,TxWx,2013-03-08 23:31:00,
2013-03-08 18:37:00,32.0,22.0,30.08,NW,315,10.0,14.0,71,0.00,,,0.04,TxWx,2013-03-08 23:37:00,
2013-03-08 18:42:00,32.0,22.0,30.09,NNW,337,9.0,16.0,71,0.00,,,0.04,TxWx,2013-03-08 23:42:00,
2013-03-08 18:47:00,33.0,23.0,30.09,NNW,337,14.0,15.0,71,0.00,,,0.04,TxWx,2013-03-08 23:47:00,
2013-03-08 18:52:00,32.0,22.0,30.09,NNW,337,18.0,18.0,70,0.00,,,0.04,TxWx,2013-03-08 23:52:00,
2013-03-08 18:57:00,32.0,22.0,30.09,NW,315,18.0,18.0,70,0.00,,,0.04,TxWx,2013-03-08 23:57:00,
2013-03-08 19:02:00,32.0,22.0,30.09,NNE,22,10.0,11.0,70,0.00,,,0.04,TxWx,2013-03-09 00:02:00,
2013-03-08 19:07:00,32.0,22.0,30.09,North,0,14.0,14.0,71,0.00,,,0.04,TxWx,2013-03-09 00:07:00,
2013-03-08 19:12:00,32.0,23.0,30.09,NNW,337,11.0,14.0,71,0.00,,,0.04,TxWx,2013-03-09 00:12:00,
2013-03-08 19:17:00,32.0,23.0,30.10,NNW,337,11.0,12.0,72,0.00,,,0.04,TxWx,2013-03-09 00:17:00,
2013-03-08 19:22:00,32.0,23.0,30.10,NNW,337,19.0,19.0,72,0.00,,,0.04,TxWx,2013-03-09 00:22:00,
2013-03-08 19:27:00,32.0,23.0,30.10,NW,315,6.0,11.0,72,0.00,,,0.04,TxWx,2013-03-09 00:27:00,
2013-03-08 19:32:00,32.0,23.0,30.10,NNW,337,9.0,16.0,73,0.00,,,0.04,TxWx,2013-03-09 00:32:00,
2013-03-08 19:38:00,31.0,22.0,30.10,North,0,8.0,9.0,73,0.00,,,0.04,TxWx,2013-03-09 00:38:00,
2013-03-08 19:43:00,31.0,22.0,30.11,WNW,292,5.0,8.0,73,0.00,,,0.04,TxWx,2013-03-09 00:43:00,
2013-03-08 19:48:00,31.0,23.0,30.11,NNW,337,8.0,14.0,74,0.00,,,0.04,TxWx,2013-03-09 00:48:00,
2013-03-08 19:53:00,31.0,23.0,30.11,NNW,337,10.0,14.0,74,0.00,,,0.04,TxWx,2013-03-09 00:53:00,
2013-03-08 19:58:00,31.0,23.0,30.11,NNW,337,13.0,15.0,74,0.00,,,0.04,TxWx,2013-03-09 00:58:00,
2013-03-08 20:03:00,31.0,23.0,30.11,North,0,14.0,14.0,75,0.00,,,0.04,TxWx,2013-03-09 01:03:00,
2013-03-08 20:08:00,31.0,23.0,30.11,NNW,337,14.0,15.0,75,0.00,,,0.04,TxWx,2013-03-09 01:08:00,
2013-03-08 20:13:00,31.0,23.0,30.12,NNW,337,14.0,14.0,75,0.00,,,0.04,TxWx,2013-03-09 01:13:00,
2013-03-08 20:18:00,31.0,23.0,30.12,NNE,22,6.0,8.0,75,0.00,,,0.04,TxWx,2013-03-09 01:18:00,
2013-03-08 20:23:00,31.0,23.0,30.12,NNE,22,7.0,8.0,75,0.00,,,0.04,TxWx,2013-03-09 01:23:00,
2013-03-08 20:28:00,31.0,23.0,30.12,North,0,11.0,13.0,75,0.00,,,0.04,TxWx,2013-03-09 01:28:00,
2013-03-08 20:33:00,31.0,23.0,30.12,NNE,22,13.0,18.0,75,0.00,,,0.04,TxWx,2013-03-09 01:33:00,
2013-03-08 20:39:00,30.0,22.0,30.12,North,0,8.0,8.0,75,0.00,,,0.04,TxWx,2013-03-09 01:39:00,
2013-03-08 20:44:00,30.0,22.0,30.12,NNW,337,12.0,14.0,75,0.00,,,0.04,TxWx,2013-03-09 01:44:00,
2013-03-08 20:49:00,31.0,23.0,30.12,North,0,14.0,14.0,75,0.00,,,0.04,TxWx,2013-03-09 01:49:00,
2013-03-08 20:54:00,30.0,22.0,30.12,NNE,22,9.0,11.0,76,0.00,,,0.04,TxWx,2013-03-09 01:54:00,
2013-03-08 20:59:00,30.0,22.0,30.12,North,0,10.0,16.0,76,0.00,,,0.04,TxWx,2013-03-09 01:59:00,
2013-03-08 21:04:00,31.0,22.0,30.12,NNW,337,10.0,11.0,76,0.00,,,0.04,TxWx,2013-03-09 02:04:00,
2013-03-08 21:09:00,30.0,22.0,30.12,NNE,22,10.0,10.0,76,0.00,,,0.04,TxWx,2013-03-09 02:09:00,
2013-03-08 21:14:00,30.0,22.0,30.12,North,0,15.0,16.0,76,0.00,,,0.04,TxWx,2013-03-09 02:14:00,
2013-03-08 21:19:00,30.0,22.0,30.12,NW,315,8.0,10.0,76,0.00,,,0.04,TxWx,2013-03-09 02:19:00,
2013-03-08 21:24:00,30.0,22.0,30.13,North,0,14.0,14.0,75,0.00,,,0.04,TxWx,2013-03-09 02:24:00,
2013-03-08 21:29:00,30.0,22.0,30.12,NW,315,6.0,8.0,75,0.00,,,0.04,TxWx,2013-03-09 02:29:00,
2013-03-08 21:34:00,30.0,22.0,30.13,NW,315,6.0,10.0,76,0.00,,,0.04,TxWx,2013-03-09 02:34:00,
2013-03-08 21:40:00,30.0,22.0,30.13,NNW,337,11.0,11.0,76,0.00,,,0.04,TxWx,2013-03-09 02:40:00,
2013-03-08 21:45:00,30.0,22.0,30.13,NNW,337,5.0,8.0,76,0.00,,,0.04,TxWx,2013-03-09 02:45:00,
2013-03-08 21:50:00,29.0,21.0,30.13,NW,315,10.0,11.0,76,0.00,,,0.04,TxWx,2013-03-09 02:50:00,
2013-03-08 21:55:00,29.0,23.0,30.13,NNW,337,10.0,12.0,77,0.00,,,0.04,TxWx,2013-03-09 02:55:00,
2013-03-08 22:00:00,30.0,23.0,30.12,NNW,337,9.0,13.0,77,0.00,,,0.04,TxWx,2013-03-09 03:00:00,
2013-03-08 22:05:00,29.0,22.0,30.12,NW,315,10.0,10.0,77,0.00,,,0.04,TxWx,2013-03-09 03:05:00,
2013-03-08 22:10:00,29.0,22.0,30.13,North,0,6.0,8.0,78,0.00,,,0.04,TxWx,2013-03-09 03:10:00,
2013-03-08 22:15:00,29.0,22.0,30.13,NW,315,11.0,14.0,78,0.00,,,0.04,TxWx,2013-03-09 03:15:00,
2013-03-08 22:20:00,29.0,22.0,30.13,North,0,10.0,13.0,78,0.00,,,0.04,TxWx,2013-03-09 03:20:00,
2013-03-08 22:25:00,29.0,22.0,30.13,NNW,337,13.0,14.0,78,0.00,,,0.04,TxWx,2013-03-09 03:25:00,
2013-03-08 22:30:00,29.0,22.0,30.13,West,270,6.0,8.0,78,0.00,,,0.04,TxWx,2013-03-09 03:30:00,
2013-03-08 22:35:00,29.0,22.0,30.13,NW,315,16.0,18.0,78,0.00,,,0.04,TxWx,2013-03-09 03:35:00,
2013-03-08 22:40:00,29.0,22.0,30.13,NW,315,9.0,11.0,78,0.00,,,0.04,TxWx,2013-03-09 03:40:00,
2013-03-08 22:46:00,29.0,22.0,30.12,NNE,22,8.0,16.0,78,0.00,,,0.04,TxWx,2013-03-09 03:46:00,
2013-03-08 22:51:00,29.0,22.0,30.13,NNW,337,11.0,16.0,78,0.00,,,0.04,TxWx,2013-03-09 03:51:00,
2013-03-08 22:56:00,29.0,22.0,30.12,NNE,22,12.0,14.0,78,0.00,,,0.04,TxWx,2013-03-09 03:56:00,
2013-03-08 23:01:00,29.0,22.0,30.12,NW,315,13.0,15.0,78,0.00,,,0.04,TxWx,2013-03-09 04:01:00,
2013-03-08 23:06:00,29.0,21.0,30.12,NW,315,11.0,17.0,78,0.00,,,0.04,TxWx,2013-03-09 04:06:00,
2013-03-08 23:11:00,28.0,21.0,30.12,NW,315,14.0,17.0,79,0.00,,,0.04,TxWx,2013-03-09 04:11:00,
2013-03-08 23:16:00,28.0,21.0,30.13,NNW,337,9.0,13.0,79,0.00,,,0.04,TxWx,2013-03-09 04:16:00,
2013-03-08 23:21:00,28.0,21.0,30.13,NW,315,11.0,11.0,79,0.00,,,0.04,TxWx,2013-03-09 04:21:00,
2013-03-08 23:26:00,28.0,21.0,30.12,NW,315,13.0,14.0,79,0.00,,,0.04,TxWx,2013-03-09 04:26:00,
2013-03-08 23:31:00,28.0,21.0,30.12,NNW,337,9.0,9.0,79,0.00,,,0.04,TxWx,2013-03-09 04:31:00,
2013-03-08 23:36:00,29.0,22.0,30.12,NNW,337,13.0,14.0,79,0.00,,,0.04,TxWx,2013-03-09 04:36:00,
2013-03-08 23:41:00,28.0,21.0,30.13,North,0,11.0,13.0,79,0.00,,,0.04,TxWx,2013-03-09 04:41:00,
2013-03-08 23:46:00,28.0,21.0,30.12,NW,315,11.0,11.0,80,0.00,,,0.04,TxWx,2013-03-09 04:46:00,
2013-03-08 23:51:00,28.0,22.0,30.12,NNW,337,13.0,16.0,80,0.00,,,0.04,TxWx,2013-03-09 04:51:00,
2013-03-08 23:57:00,28.0,22.0,30.12,NNW,337,9.0,16.0,80,0.00,,,0.04,TxWx,2013-03-09 04:57:00,